Time;durP1;ratioP1;P1;durP2;ratioP2;P2;SDS_P1;SDS_P2;PMS_P1;PMS_P2;Temp;Humidity;BMP_temperature;BMP_pressure;BME280_temperature;BME280_humidity;BME280_pressure;Samples;Min_cycle;Max_cycle;Signal;HPM_P1;HPM_P2
2022/05/26 00:00:56;;;;;;;6.22;4.18;;;;;;;;;;6171746;23;20175;-86
2022/05/26 00:04:03;;;;;;;9.05;4.63;;;;;;;;;;6189841;23;20175;-86
2022/05/26 00:07:08;;;;;;;8.40;4.30;;;;;;;;;;6170945;23;20171;-86
2022/05/26 00:10:13;;;;;;;6.25;4.45;;;;;;;;;;6171813;23;20167;-86
2022/05/26 00:13:18;;;;;;;9.68;4.70;;;;;;;;;;6174659;23;20184;-85
2022/05/26 00:16:24;;;;;;;8.45;4.57;;;;;;;;;;6172766;23;20191;-86
2022/05/26 00:19:31;;;;;;;10.13;4.40;;;;;;;;;;6191013;23;20203;-86
2022/05/26 00:22:37;;;;;;;10.25;4.50;;;;;;;;;;6182460;23;20187;-86
2022/05/26 00:25:42;;;;;;;7.80;4.07;;;;;;;;;;6173327;23;20191;-86
2022/05/26 00:28:47;;;;;;;9.77;4.15;;;;;;;;;;6191724;23;20180;-87
2022/05/26 00:31:52;;;;;;;8.73;4.78;;;;;;;;;;6174195;23;20175;-86
2022/05/26 00:34:59;;;;;;;11.38;4.15;;;;;;;;;;6174372;23;20199;-86
2022/05/26 00:38:05;;;;;;;9.88;4.40;;;;;;;;;;6173672;23;20203;-86
2022/05/26 00:41:13;;;;;;;8.05;4.55;;;;;;;;;;6173391;23;20176;-87
2022/05/26 00:44:18;;;;;;;6.13;4.70;;;;;;;;;;6173837;23;20191;-87
2022/05/26 00:47:27;;;;;;;6.80;4.25;;;;;;;;;;6172910;23;20175;-86
2022/05/26 00:50:36;;;;;;;9.10;5.05;;;;;;;;;;6173599;23;20172;-87
2022/05/26 00:53:43;;;;;;;7.30;4.28;;;;;;;;;;6190734;23;20179;-87
2022/05/26 00:56:51;;;;;;;9.75;4.38;;;;;;;;;;6172699;23;20176;-86
2022/05/26 00:59:59;;;;;;;9.45;4.38;;;;;;;;;;6173452;23;20397;-87
2022/05/26 01:03:07;;;;;;;8.35;3.95;;;;;;;;;;6173920;23;20516;-87
2022/05/26 01:06:15;;;;;;;9.02;5.03;;;;;;;;;;6190536;23;20500;-87
2022/05/26 01:09:20;;;;;;;9.80;4.68;;;;;;;;;;6190642;23;20195;-87
2022/05/26 01:12:25;;;;;;;7.05;4.53;;;;;;;;;;6190670;23;20171;-87
2022/05/26 01:15:32;;;;;;;16.40;5.15;;;;;;;;;;6174373;23;20195;-86
2022/05/26 01:18:43;;;;;;;9.13;4.82;;;;;;;;;;6176619;23;20168;-86
2022/05/26 01:21:54;;;;;;;8.88;5.32;;;;;;;;;;6181602;23;20497;-86
2022/05/26 01:25:08;;;;;;;15.77;5.65;;;;;;;;;;6175163;23;20183;-87
2022/05/26 01:28:20;;;;;;;8.82;5.35;;;;;;;;;;6177119;23;20176;-87
2022/05/26 01:31:39;;;;;;;9.35;5.22;;;;;;;;;;6176141;23;20170;-85
2022/05/26 01:34:51;;;;;;;11.38;5.53;;;;;;;;;;6190774;23;20211;-85
2022/05/26 01:38:00;;;;;;;12.25;5.18;;;;;;;;;;6171862;23;20172;-86
2022/05/26 01:41:13;;;;;;;9.63;5.20;;;;;;;;;;6172761;23;20176;-85
2022/05/26 01:47:47;;;;;;;11.77;5.25;;;;;;;;;;6177836;23;20171;-86
2022/05/26 01:50:57;;;;;;;8.77;5.30;;;;;;;;;;6191025;23;20175;-87
2022/05/26 01:54:05;;;;;;;12.15;5.65;;;;;;;;;;6173107;23;20437;-87
2022/05/26 01:57:13;;;;;;;7.75;4.85;;;;;;;;;;6176916;23;20195;-87
2022/05/26 02:00:20;;;;;;;9.27;5.25;;;;;;;;;;6189983;23;20421;-87
2022/05/26 02:03:32;;;;;;;9.55;5.00;;;;;;;;;;6189878;23;20176;-86
2022/05/26 02:06:40;;;;;;;12.05;5.18;;;;;;;;;;6172982;23;20172;-87
2022/05/26 02:09:46;;;;;;;9.55;5.05;;;;;;;;;;6172519;23;20258;-87
2022/05/26 02:12:54;;;;;;;9.48;4.82;;;;;;;;;;6172849;23;20175;-87
2022/05/26 02:16:02;;;;;;;9.90;5.03;;;;;;;;;;6172083;23;20200;-86
2022/05/26 02:19:12;;;;;;;9.38;5.28;;;;;;;;;;6189369;23;20593;-87
2022/05/26 02:22:19;;;;;;;7.75;5.05;;;;;;;;;;6172772;23;20246;-86
2022/05/26 02:25:26;;;;;;;8.68;5.07;;;;;;;;;;6172110;23;20171;-86
2022/05/26 02:29:51;;;;;;;10.30;5.25;;;;;;;;;;6173746;23;20210;-87
2022/05/26 02:31:57;;;;;;;6.55;4.47;;;;;;;;;;6175048;23;20195;-86
2022/05/26 02:35:06;;;;;;;12.48;6.43;;;;;;;;;;6171910;23;20210;-86
2022/05/26 02:38:13;;;;;;;11.52;6.38;;;;;;;;;;6191110;23;20183;-86
2022/05/26 02:41:18;;;;;;;15.40;6.93;;;;;;;;;;6172751;23;20175;-86
2022/05/26 02:44:24;;;;;;;21.08;6.90;;;;;;;;;;6173800;23;20184;-86
2022/05/26 02:47:47;;;;;;;12.20;6.53;;;;;;;;;;6174042;23;20168;-87
2022/05/26 02:50:57;;;;;;;18.08;6.57;;;;;;;;;;6191445;23;20246;-87
2022/05/26 02:54:06;;;;;;;10.55;6.00;;;;;;;;;;6192663;23;20215;-87
2022/05/26 02:57:18;;;;;;;14.73;6.22;;;;;;;;;;6179176;23;20351;-86
2022/05/26 03:00:25;;;;;;;12.40;7.18;;;;;;;;;;6186474;23;20196;-85
2022/05/26 03:03:34;;;;;;;10.73;6.38;;;;;;;;;;6181403;23;20280;-86
2022/05/26 03:06:45;;;;;;;26.85;6.65;;;;;;;;;;6181303;23;20180;-85
2022/05/26 03:09:51;;;;;;;10.65;6.60;;;;;;;;;;6182810;23;20175;-85
2022/05/26 03:12:56;;;;;;;13.15;6.70;;;;;;;;;;6201183;23;20184;-84
2022/05/26 03:16:02;;;;;;;10.25;6.85;;;;;;;;;;6175996;23;20498;-85
2022/05/26 03:19:07;;;;;;;14.38;6.55;;;;;;;;;;6173725;23;20207;-86
2022/05/26 03:22:14;;;;;;;10.18;6.05;;;;;;;;;;6174418;23;20234;-85
2022/05/26 03:25:20;;;;;;;9.23;5.97;;;;;;;;;;6174412;23;20242;-85
2022/05/26 03:28:26;;;;;;;8.52;5.28;;;;;;;;;;6191876;23;20635;-86
2022/05/26 03:31:31;;;;;;;9.45;5.78;;;;;;;;;;6174288;23;20405;-86
2022/05/26 03:41:41;;;;;;;13.13;5.88;;;;;;;;;;6086942;23;20245;-87
2022/05/26 03:44:46;;;;;;;12.27;5.63;;;;;;;;;;6082154;23;20290;-87
2022/05/26 03:47:52;;;;;;;9.35;5.75;;;;;;;;;;6154925;23;20515;-87
2022/05/26 03:50:58;;;;;;;8.70;6.25;;;;;;;;;;6171508;23;20191;-86
2022/05/26 03:54:05;;;;;;;10.07;5.65;;;;;;;;;;6172230;23;20271;-87
2022/05/26 03:57:09;;;;;;;7.68;5.30;;;;;;;;;;6174326;23;20231;-87
2022/05/26 04:00:16;;;;;;;18.77;5.97;;;;;;;;;;6174898;23;20287;-87
2022/05/26 04:03:21;;;;;;;11.30;5.55;;;;;;;;;;6193960;23;20179;-87
2022/05/26 04:06:28;;;;;;;11.23;5.93;;;;;;;;;;6176103;23;20167;-87
2022/05/26 04:09:35;;;;;;;9.05;5.72;;;;;;;;;;6196082;23;20179;-87
2022/05/26 04:12:41;;;;;;;15.43;6.30;;;;;;;;;;6176579;23;20222;-85
2022/05/26 04:15:47;;;;;;;16.58;6.35;;;;;;;;;;6199684;23;20215;-86
2022/05/26 04:18:52;;;;;;;18.50;6.47;;;;;;;;;;6183513;23;20198;-86
2022/05/26 04:22:16;;;;;;;12.77;6.88;;;;;;;;;;6211923;23;20172;-85
2022/05/26 04:25:25;;;;;;;15.73;6.80;;;;;;;;;;6195262;23;20180;-88
2022/05/26 04:28:30;;;;;;;20.05;6.22;;;;;;;;;;6194464;23;20280;-88
2022/05/26 04:31:36;;;;;;;10.38;5.85;;;;;;;;;;6176051;23;20524;-87
2022/05/26 04:34:43;;;;;;;19.73;7.55;;;;;;;;;;6192142;23;20195;-87
2022/05/26 04:37:48;;;;;;;10.75;5.65;;;;;;;;;;6174438;23;20164;-87
2022/05/26 04:40:59;;;;;;;12.65;5.72;;;;;;;;;;6174615;23;20184;-87
2022/05/26 04:44:06;;;;;;;15.13;6.22;;;;;;;;;;6195914;23;20552;-86
2022/05/26 04:47:11;;;;;;;15.30;6.38;;;;;;;;;;6192671;23;20280;-87
2022/05/26 04:50:18;;;;;;;13.32;6.22;;;;;;;;;;6174435;23;20227;-86
2022/05/26 04:53:23;;;;;;;21.50;6.35;;;;;;;;;;6174150;23;20226;-86
2022/05/26 04:56:30;;;;;;;18.70;6.70;;;;;;;;;;6191573;23;20195;-87
2022/05/26 04:59:35;;;;;;;17.42;6.40;;;;;;;;;;6173563;23;20168;-86
2022/05/26 05:02:40;;;;;;;11.52;6.53;;;;;;;;;;6190952;23;20288;-87
2022/05/26 05:05:45;;;;;;;12.45;6.25;;;;;;;;;;6172672;23;20167;-86
2022/05/26 05:08:51;;;;;;;13.88;6.80;;;;;;;;;;6204881;23;20160;-85
2022/05/26 05:12:06;;;;;;;29.05;7.38;;;;;;;;;;6211105;23;20180;-86
2022/05/26 05:15:17;;;;;;;16.35;6.80;;;;;;;;;;6180922;23;20168;-86
2022/05/26 05:18:23;;;;;;;10.95;6.57;;;;;;;;;;6174896;23;20326;-87
2022/05/26 05:21:32;;;;;;;21.35;6.70;;;;;;;;;;6175183;23;20175;-88
2022/05/26 05:24:40;;;;;;;32.85;6.88;;;;;;;;;;6176936;23;20172;-87
2022/05/26 05:27:47;;;;;;;10.35;6.38;;;;;;;;;;6191988;23;20299;-86
2022/05/26 05:30:55;;;;;;;10.73;5.80;;;;;;;;;;6192709;23;20206;-86
2022/05/26 05:34:02;;;;;;;13.13;6.15;;;;;;;;;;6192047;23;20171;-86
2022/05/26 05:37:07;;;;;;;9.15;5.80;;;;;;;;;;6174752;23;20198;-86
2022/05/26 05:40:16;;;;;;;10.88;5.88;;;;;;;;;;6178608;23;20182;-87
2022/05/26 05:43:26;;;;;;;10.68;6.68;;;;;;;;;;6178780;23;20223;-87
2022/05/26 05:46:34;;;;;;;10.05;5.75;;;;;;;;;;6176115;23;20227;-87
2022/05/26 05:49:39;;;;;;;9.75;5.57;;;;;;;;;;6174556;23;20180;-86
2022/05/26 05:52:44;;;;;;;11.20;6.57;;;;;;;;;;6192703;23;20421;-86
2022/05/26 05:55:49;;;;;;;9.20;5.90;;;;;;;;;;6189582;23;20190;-86
2022/05/26 05:58:55;;;;;;;10.57;6.57;;;;;;;;;;6172293;23;20223;-87
2022/05/26 06:02:00;;;;;;;10.10;5.57;;;;;;;;;;6172473;23;20172;-87
2022/05/26 06:05:06;;;;;;;12.60;6.38;;;;;;;;;;6190809;23;20175;-87
2022/05/26 06:08:12;;;;;;;8.23;5.82;;;;;;;;;;6172877;23;20187;-87
2022/05/26 06:11:17;;;;;;;8.63;5.57;;;;;;;;;;6195604;23;20220;-87
2022/05/26 06:14:24;;;;;;;8.35;5.38;;;;;;;;;;6174728;23;20597;-87
2022/05/26 06:17:29;;;;;;;7.07;4.70;;;;;;;;;;6190591;23;20199;-87
2022/05/26 06:20:34;;;;;;;6.30;4.60;;;;;;;;;;6190956;23;20418;-87
2022/05/26 06:23:39;;;;;;;6.70;4.20;;;;;;;;;;6172522;23;20578;-87
2022/05/26 06:26:44;;;;;;;5.90;4.13;;;;;;;;;;6171617;23;20264;-87
2022/05/26 06:29:50;;;;;;;6.28;3.97;;;;;;;;;;6172342;23;20526;-87
2022/05/26 06:39:42;;;;;;;6.32;4.00;;;;;;;;;;6189579;23;20516;-86
2022/05/26 06:42:47;;;;;;;10.85;4.20;;;;;;;;;;6173838;23;20419;-86
2022/05/26 06:45:54;;;;;;;5.68;3.67;;;;;;;;;;6173094;23;20254;-86
2022/05/26 06:48:59;;;;;;;5.25;3.90;;;;;;;;;;6172485;23;20176;-87
2022/05/26 06:52:05;;;;;;;6.38;4.28;;;;;;;;;;6174514;23;20295;-87
2022/05/26 06:55:11;;;;;;;5.53;3.58;;;;;;;;;;6173006;23;20605;-87
2022/05/26 06:58:16;;;;;;;5.15;3.25;;;;;;;;;;6173910;23;20207;-86
2022/05/26 07:01:22;;;;;;;5.45;3.78;;;;;;;;;;6174016;23;20191;-87
2022/05/26 07:04:27;;;;;;;10.52;3.10;;;;;;;;;;6193931;23;20223;-87
2022/05/26 07:07:35;;;;;;;6.63;3.40;;;;;;;;;;6176859;23;20583;-87
2022/05/26 07:10:40;;;;;;;6.57;3.30;;;;;;;;;;6174540;23;20568;-82
2022/05/26 07:13:46;;;;;;;3.83;2.72;;;;;;;;;;6180062;23;20171;-85
2022/05/26 07:16:53;;;;;;;6.53;3.10;;;;;;;;;;6180325;23;20214;-86
2022/05/26 07:19:58;;;;;;;7.15;3.10;;;;;;;;;;6179949;23;20183;-84
2022/05/26 07:23:03;;;;;;;6.80;2.78;;;;;;;;;;6179998;23;20194;-86
2022/05/26 07:26:12;;;;;;;3.10;1.83;;;;;;;;;;6195593;23;20175;-85
2022/05/26 07:29:18;;;;;;;4.50;2.05;;;;;;;;;;6179693;23;20291;-86
2022/05/26 07:32:38;;;;;;;5.70;2.38;;;;;;;;;;6199477;23;20175;-87
2022/05/26 07:35:49;;;;;;;15.43;2.10;;;;;;;;;;6173541;23;20176;-87
2022/05/26 07:42:24;;;;;;;2.95;2.00;;;;;;;;;;6193296;23;20256;-87
2022/05/26 07:45:29;;;;;;;5.20;1.88;;;;;;;;;;6175760;23;20254;-86
2022/05/26 07:48:34;;;;;;;6.15;2.00;;;;;;;;;;6191374;23;20265;-87
2022/05/26 07:51:41;;;;;;;4.20;1.90;;;;;;;;;;6174268;23;20291;-87
2022/05/26 07:54:50;;;;;;;5.10;1.60;;;;;;;;;;6174367;23;20180;-88
2022/05/26 08:01:25;;;;;;;2.45;1.33;;;;;;;;;;6182381;23;20171;-87
2022/05/26 08:04:30;;;;;;;2.55;1.48;;;;;;;;;;6177918;23;20236;-89
2022/05/26 08:07:39;;;;;;;2.35;1.35;;;;;;;;;;6179259;23;20284;-88
2022/05/26 08:10:44;;;;;;;3.22;1.67;;;;;;;;;;6177213;23;20175;-89
2022/05/26 08:13:50;;;;;;;4.85;1.63;;;;;;;;;;6176293;23;20290;-88
2022/05/26 08:16:55;;;;;;;4.93;1.75;;;;;;;;;;6177966;23;20227;-89
2022/05/26 08:20:01;;;;;;;2.25;1.20;;;;;;;;;;6173764;23;20172;-88
2022/05/26 08:23:07;;;;;;;2.15;1.00;;;;;;;;;;6172571;23;20432;-88
2022/05/26 08:26:14;;;;;;;6.10;1.52;;;;;;;;;;6174046;23;20183;-88
2022/05/26 08:29:20;;;;;;;5.40;1.20;;;;;;;;;;6171986;23;20230;-87
2022/05/26 08:32:26;;;;;;;4.60;1.00;;;;;;;;;;6173958;23;20207;-88
2022/05/26 08:35:32;;;;;;;3.80;1.00;;;;;;;;;;6174898;23;20556;-87
2022/05/26 08:38:39;;;;;;;6.30;1.05;;;;;;;;;;6173349;23;20219;-85
2022/05/26 08:41:47;;;;;;;3.33;1.00;;;;;;;;;;6189579;23;20420;-87
2022/05/26 08:44:55;;;;;;;3.03;0.80;;;;;;;;;;6174509;23;20183;-86
2022/05/26 08:48:00;;;;;;;1.90;0.80;;;;;;;;;;6195687;23;20176;-88
2022/05/26 08:51:05;;;;;;;7.47;1.30;;;;;;;;;;6175877;23;20215;-87
2022/05/26 08:54:16;;;;;;;1.13;0.60;;;;;;;;;;6176267;23;20187;-87
2022/05/26 08:57:24;;;;;;;1.40;0.73;;;;;;;;;;6192286;23;20196;-88
2022/05/26 09:00:29;;;;;;;1.48;0.90;;;;;;;;;;6174104;23;20176;-88
2022/05/26 09:03:38;;;;;;;1.73;0.80;;;;;;;;;;6196062;23;20287;-87
2022/05/26 09:13:49;;;;;;;4.65;1.75;;;;;;;;;;6198377;23;20256;-88
2022/05/26 09:16:58;;;;;;;4.20;1.23;;;;;;;;;;6177220;23;20218;-88
2022/05/26 09:20:05;;;;;;;3.80;0.80;;;;;;;;;;6195602;23;20171;-88
2022/05/26 09:23:12;;;;;;;1.63;0.68;;;;;;;;;;6178645;23;20314;-88
2022/05/26 09:26:27;;;;;;;5.25;1.20;;;;;;;;;;6179710;23;20516;-89
2022/05/26 09:29:34;;;;;;;2.08;0.90;;;;;;;;;;6196397;23;20262;-88
2022/05/26 09:32:39;;;;;;;2.30;0.77;;;;;;;;;;6196143;23;20175;-87
2022/05/26 09:35:48;;;;;;;3.17;0.70;;;;;;;;;;6181173;23;20175;-86
2022/05/26 09:38:55;;;;;;;3.17;0.80;;;;;;;;;;6180292;23;20172;-87
2022/05/26 09:42:06;;;;;;;3.58;0.90;;;;;;;;;;6188593;23;20172;-87
2022/05/26 09:45:13;;;;;;;3.03;1.00;;;;;;;;;;6193930;23;20179;-87
2022/05/26 09:48:20;;;;;;;4.15;0.98;;;;;;;;;;6181302;23;20409;-88
2022/05/26 09:51:27;;;;;;;2.25;0.80;;;;;;;;;;6178550;23;20176;-87
2022/05/26 09:58:12;;;;;;;5.05;0.75;;;;;;;;;;6175633;23;20191;-88
2022/05/26 10:01:34;;;;;;;3.72;0.70;;;;;;;;;;6174633;23;20172;-86
2022/05/26 10:04:47;;;;;;;2.65;0.65;;;;;;;;;;6174422;23;20192;-87
2022/05/26 10:07:59;;;;;;;5.05;0.70;;;;;;;;;;6174541;23;20296;-86
2022/05/26 10:11:09;;;;;;;2.90;0.80;;;;;;;;;;6174244;23;20184;-87
2022/05/26 10:14:32;;;;;;;4.88;1.05;;;;;;;;;;6174460;23;20183;-87
2022/05/26 10:17:46;;;;;;;4.90;0.80;;;;;;;;;;6173778;23;20239;-86
2022/05/26 10:20:53;;;;;;;1.33;0.68;;;;;;;;;;6191668;23;20784;-86
2022/05/26 10:24:18;;;;;;;4.38;0.90;;;;;;;;;;6173414;23;20279;-88
2022/05/26 10:27:41;;;;;;;5.93;0.60;;;;;;;;;;6173697;23;20222;-89
2022/05/26 10:30:54;;;;;;;0.93;0.50;;;;;;;;;;6178745;23;20175;-88
2022/05/26 10:34:15;;;;;;;1.90;0.73;;;;;;;;;;6173960;23;20400;-88
2022/05/26 10:37:28;;;;;;;5.35;0.95;;;;;;;;;;6173195;23;20203;-87
2022/05/26 10:40:37;;;;;;;1.23;0.70;;;;;;;;;;6173016;23;20180;-87
2022/05/26 10:43:45;;;;;;;5.13;1.35;;;;;;;;;;6196245;23;20488;-86
2022/05/26 10:46:59;;;;;;;2.67;1.30;;;;;;;;;;6193775;23;20172;-87
2022/05/26 10:50:09;;;;;;;5.47;0.88;;;;;;;;;;6196446;23;20172;-86
2022/05/26 10:53:17;;;;;;;6.20;0.90;;;;;;;;;;6196275;23;20164;-87
2022/05/26 10:56:26;;;;;;;0.57;0.52;;;;;;;;;;6195511;23;20200;-87
2022/05/26 10:59:34;;;;;;;3.47;0.90;;;;;;;;;;6195412;23;20167;-87
2022/05/26 11:02:48;;;;;;;5.07;0.98;;;;;;;;;;6195221;23;20160;-87
2022/05/26 11:05:56;;;;;;;2.30;0.88;;;;;;;;;;6195258;23;20168;-87
2022/05/26 11:09:07;;;;;;;2.38;0.80;;;;;;;;;;6196093;23;20167;-85
2022/05/26 11:12:17;;;;;;;4.43;1.23;;;;;;;;;;6194208;23;20159;-86
2022/05/26 11:19:03;;;;;;;2.30;0.85;;;;;;;;;;6161081;23;20239;-87
2022/05/26 11:22:13;;;;;;;3.47;0.82;;;;;;;;;;6208658;23;20248;-86
2022/05/26 11:25:22;;;;;;;2.35;0.93;;;;;;;;;;6194731;23;20187;-86
2022/05/26 11:28:31;;;;;;;2.22;0.90;;;;;;;;;;6187305;23;20211;-87
2022/05/26 11:38:33;;;;;;;1.30;0.70;;;;;;;;;;6173221;23;20765;-87
2022/05/26 11:41:49;;;;;;;2.55;0.75;;;;;;;;;;6173848;23;20576;-87
2022/05/26 11:44:57;;;;;;;3.33;0.70;;;;;;;;;;6191848;23;20458;-87
2022/05/26 11:48:04;;;;;;;3.10;1.00;;;;;;;;;;6174794;23;20171;-87
2022/05/26 11:51:24;;;;;;;1.38;0.80;;;;;;;;;;6174427;23;20171;-88
2022/05/26 11:54:48;;;;;;;1.40;0.70;;;;;;;;;;6173448;23;20668;-87
2022/05/26 11:57:57;;;;;;;2.15;0.80;;;;;;;;;;6172732;23;20196;-87
2022/05/26 12:01:27;;;;;;;1.55;0.80;;;;;;;;;;6204621;23;20224;-86
2022/05/26 12:04:33;;;;;;;1.63;0.77;;;;;;;;;;6190446;23;20171;-85
2022/05/26 12:07:43;;;;;;;1.33;0.80;;;;;;;;;;6194037;23;20167;-87
2022/05/26 12:10:53;;;;;;;3.10;0.85;;;;;;;;;;6192189;23;20527;-88
2022/05/26 12:14:02;;;;;;;1.50;0.68;;;;;;;;;;6180509;23;20176;-87
2022/05/26 12:17:26;;;;;;;4.28;0.73;;;;;;;;;;6200165;23;20531;-86
2022/05/26 12:20:42;;;;;;;3.60;0.80;;;;;;;;;;6178613;23;20195;-87
2022/05/26 12:23:48;;;;;;;5.93;0.80;;;;;;;;;;6175683;23;20230;-87
2022/05/26 12:26:55;;;;;;;3.20;1.25;;;;;;;;;;6176121;23;20409;-87
2022/05/26 12:30:11;;;;;;;1.65;0.88;;;;;;;;;;6176785;23;20168;-86
2022/05/26 12:33:35;;;;;;;1.52;0.73;;;;;;;;;;6178289;23;20172;-87
2022/05/26 12:36:56;;;;;;;3.40;0.80;;;;;;;;;;6176907;23;20577;-87
2022/05/26 12:40:24;;;;;;;5.78;0.70;;;;;;;;;;6175248;23;20171;-88
2022/05/26 12:43:39;;;;;;;3.30;0.70;;;;;;;;;;6176918;23;20175;-86
2022/05/26 12:46:52;;;;;;;3.92;0.75;;;;;;;;;;6195405;23;20171;-88
2022/05/26 12:50:03;;;;;;;2.38;0.90;;;;;;;;;;6176677;23;20240;-88
2022/05/26 12:53:17;;;;;;;4.40;0.80;;;;;;;;;;6193080;23;20176;-87
2022/05/26 12:56:26;;;;;;;3.47;0.70;;;;;;;;;;6175621;23;20264;-88
2022/05/26 12:59:33;;;;;;;1.58;0.63;;;;;;;;;;6193581;23;20203;-88
2022/05/26 13:02:42;;;;;;;1.45;0.80;;;;;;;;;;6193531;23;20500;-88
2022/05/26 13:06:07;;;;;;;6.90;0.88;;;;;;;;;;6173605;23;20172;-87
2022/05/26 13:09:15;;;;;;;2.15;0.70;;;;;;;;;;6174627;23;20544;-88
2022/05/26 13:12:22;;;;;;;3.85;0.77;;;;;;;;;;6174803;23;20183;-87
2022/05/26 13:15:29;;;;;;;2.10;0.75;;;;;;;;;;6172959;23;20222;-87
2022/05/26 13:18:38;;;;;;;3.90;0.88;;;;;;;;;;6197123;23;20183;-86
2022/05/26 13:21:49;;;;;;;2.63;0.70;;;;;;;;;;6195555;23;20195;-87
2022/05/26 13:24:58;;;;;;;3.40;0.73;;;;;;;;;;6189299;23;20171;-88
2022/05/26 13:28:06;;;;;;;3.35;0.80;;;;;;;;;;6195944;23;20191;-87
2022/05/26 13:34:46;;;;;;;3.45;1.60;;;;;;;;;;6213337;23;20148;-85
2022/05/26 13:37:52;;;;;;;2.00;1.00;;;;;;;;;;6214635;23;20179;-85
2022/05/26 13:41:01;;;;;;;1.08;0.60;;;;;;;;;;6196791;23;20156;-85
2022/05/26 13:44:07;;;;;;;1.05;0.63;;;;;;;;;;6178837;23;20172;-86
2022/05/26 13:47:13;;;;;;;1.77;0.90;;;;;;;;;;6197477;23;20159;-86
2022/05/26 13:50:32;;;;;;;6.88;1.40;;;;;;;;;;6196523;23;20171;-87
2022/05/26 13:53:40;;;;;;;3.63;1.10;;;;;;;;;;6195812;23;20196;-86
2022/05/26 13:56:47;;;;;;;1.65;0.93;;;;;;;;;;6191481;23;20187;-87
2022/05/26 13:59:57;;;;;;;2.85;0.70;;;;;;;;;;6196269;23;20240;-84
2022/05/26 14:03:03;;;;;;;1.08;0.60;;;;;;;;;;6196932;23;20172;-85
2022/05/26 14:06:11;;;;;;;2.22;0.65;;;;;;;;;;6187087;23;20568;-86
2022/05/26 14:09:28;;;;;;;3.95;0.75;;;;;;;;;;6190516;23;20178;-87
2022/05/26 14:12:33;;;;;;;5.30;0.75;;;;;;;;;;6191652;23;20160;-86
2022/05/26 14:15:40;;;;;;;3.25;0.80;;;;;;;;;;6195234;23;20217;-87
2022/05/26 14:18:48;;;;;;;5.63;0.80;;;;;;;;;;6187604;23;20187;-86
2022/05/26 14:21:55;;;;;;;3.72;0.70;;;;;;;;;;6203457;23;20167;-88
2022/05/26 14:25:03;;;;;;;5.20;0.90;;;;;;;;;;6195632;23;20163;-88
2022/05/26 14:28:09;;;;;;;4.25;0.82;;;;;;;;;;6195694;23;20156;-87
2022/05/26 14:31:19;;;;;;;1.10;0.80;;;;;;;;;;6204618;23;20171;-87
2022/05/26 14:34:26;;;;;;;1.35;0.70;;;;;;;;;;6196667;23;20191;-88
2022/05/26 14:37:34;;;;;;;1.48;0.60;;;;;;;;;;6184149;23;20175;-87
2022/05/26 14:40:46;;;;;;;1.30;0.52;;;;;;;;;;6202867;23;20255;-85
2022/05/26 14:43:56;;;;;;;2.40;0.80;;;;;;;;;;6205758;23;20522;-87
2022/05/26 14:47:04;;;;;;;6.70;0.68;;;;;;;;;;6211113;23;20163;-86
2022/05/26 14:50:11;;;;;;;2.50;0.70;;;;;;;;;;6189669;23;20174;-87
2022/05/26 14:55:26;;;;;;;1.30;0.68;;;;;;;;;;6208202;23;20191;-87
2022/05/26 14:56:42;;;;;;;2.40;0.77;;;;;;;;;;6186121;23;20276;-87
2022/05/26 14:59:49;;;;;;;2.42;0.68;;;;;;;;;;6189923;23;20187;-87
2022/05/26 15:02:58;;;;;;;3.10;1.02;;;;;;;;;;6177905;23;20176;-87
2022/05/26 15:06:04;;;;;;;2.08;0.65;;;;;;;;;;6176543;23;20195;-88
2022/05/26 15:09:14;;;;;;;3.13;0.73;;;;;;;;;;6179253;23;20171;-88
2022/05/26 15:12:19;;;;;;;4.63;0.98;;;;;;;;;;6199027;23;20184;-87
2022/05/26 15:15:25;;;;;;;2.45;0.70;;;;;;;;;;6190304;23;20224;-85
2022/05/26 15:18:31;;;;;;;1.50;0.80;;;;;;;;;;6190363;23;20216;-84
2022/05/26 15:21:48;;;;;;;2.47;0.90;;;;;;;;;;6182738;23;20418;-84
2022/05/26 15:24:56;;;;;;;2.15;0.80;;;;;;;;;;6195058;23;20270;-88
2022/05/26 15:28:02;;;;;;;1.27;0.70;;;;;;;;;;6178600;23;20172;-87
2022/05/26 15:31:10;;;;;;;1.40;0.85;;;;;;;;;;6195587;23;20171;-87
2022/05/26 15:34:17;;;;;;;1.27;0.80;;;;;;;;;;6196509;23;20160;-86
2022/05/26 15:37:23;;;;;;;1.35;0.70;;;;;;;;;;6195418;23;20156;-87
2022/05/26 15:40:33;;;;;;;1.25;0.80;;;;;;;;;;6192006;23;20167;-87
2022/05/26 15:43:41;;;;;;;3.08;0.70;;;;;;;;;;6193980;23;20172;-88
2022/05/26 15:46:47;;;;;;;1.50;0.60;;;;;;;;;;6193249;23;20192;-86
2022/05/26 15:49:52;;;;;;;2.17;0.88;;;;;;;;;;6186373;23;20485;-87
2022/05/26 15:53:01;;;;;;;1.95;0.70;;;;;;;;;;6177615;23;20175;-86
2022/05/26 15:56:10;;;;;;;3.97;0.90;;;;;;;;;;6192943;23;20602;-87
2022/05/26 15:59:19;;;;;;;5.32;0.70;;;;;;;;;;6175858;23;20436;-89
2022/05/26 16:02:24;;;;;;;3.63;0.80;;;;;;;;;;6174799;23;20175;-88
2022/05/26 16:05:29;;;;;;;4.70;0.80;;;;;;;;;;6175360;23;20172;-88
2022/05/26 16:08:35;;;;;;;2.33;0.70;;;;;;;;;;6174995;23;20286;-89
2022/05/26 16:11:45;;;;;;;3.20;0.60;;;;;;;;;;6194303;23;20206;-89
2022/05/26 16:14:51;;;;;;;1.75;1.00;;;;;;;;;;6175019;23;20415;-88
2022/05/26 16:17:57;;;;;;;3.67;0.80;;;;;;;;;;6175036;23;20551;-89
2022/05/26 16:21:08;;;;;;;2.63;1.05;;;;;;;;;;6174149;23;20172;-88
2022/05/26 16:24:13;;;;;;;3.08;0.80;;;;;;;;;;6174410;23;20550;-87
2022/05/26 16:27:22;;;;;;;1.92;0.80;;;;;;;;;;6174987;23;20222;-89
2022/05/26 16:30:29;;;;;;;3.55;0.80;;;;;;;;;;6174635;23;20172;-88
2022/05/26 16:33:34;;;;;;;4.25;0.90;;;;;;;;;;6174849;23;20288;-87
2022/05/26 16:36:53;;;;;;;2.33;1.20;;;;;;;;;;6180346;23;20428;-88
2022/05/26 16:39:59;;;;;;;2.45;0.90;;;;;;;;;;6157430;23;20323;-87
2022/05/26 16:43:08;;;;;;;1.70;0.70;;;;;;;;;;6173521;23;20176;-87
2022/05/26 16:46:13;;;;;;;3.97;0.98;;;;;;;;;;6173213;23;20176;-87
2022/05/26 16:49:19;;;;;;;4.25;0.75;;;;;;;;;;6191675;23;20481;-86
2022/05/26 16:52:26;;;;;;;1.45;0.70;;;;;;;;;;6173858;23;20175;-87
2022/05/26 16:55:31;;;;;;;1.55;0.70;;;;;;;;;;6172470;23;20204;-87
2022/05/26 16:58:38;;;;;;;2.40;0.90;;;;;;;;;;6174167;23;20250;-87
2022/05/26 17:01:45;;;;;;;1.00;0.70;;;;;;;;;;6174043;23;20180;-87
2022/05/26 17:04:50;;;;;;;4.93;0.70;;;;;;;;;;6174501;23;20179;-88
2022/05/26 17:07:55;;;;;;;4.28;1.23;;;;;;;;;;6158190;23;20176;-89
2022/05/26 17:11:01;;;;;;;2.22;0.90;;;;;;;;;;6193276;23;20287;-88
2022/05/26 17:21:29;;;;;;;1.83;0.90;;;;;;;;;;6199296;23;20211;-87
2022/05/26 17:24:35;;;;;;;2.72;0.80;;;;;;;;;;6175854;23;20412;-88
2022/05/26 17:27:42;;;;;;;4.03;0.80;;;;;;;;;;6174292;23;20532;-88
2022/05/26 17:30:51;;;;;;;1.88;0.80;;;;;;;;;;6174158;23;20171;-88
2022/05/26 17:33:57;;;;;;;3.55;0.82;;;;;;;;;;6175147;23;20172;-87
2022/05/26 17:37:06;;;;;;;3.17;0.90;;;;;;;;;;6173991;23;20207;-88
2022/05/26 17:40:14;;;;;;;3.75;1.00;;;;;;;;;;6175328;23;20198;-88
2022/05/26 17:43:20;;;;;;;1.23;0.80;;;;;;;;;;6174657;23;20283;-89
2022/05/26 17:46:30;;;;;;;1.98;0.82;;;;;;;;;;6175269;23;20620;-87
2022/05/26 17:49:42;;;;;;;2.92;0.90;;;;;;;;;;6175852;23;20214;-89
2022/05/26 17:52:47;;;;;;;1.20;0.80;;;;;;;;;;6191595;23;20175;-88
2022/05/26 17:55:52;;;;;;;1.60;0.88;;;;;;;;;;6173391;23;20202;-88
2022/05/26 17:58:58;;;;;;;2.08;1.08;;;;;;;;;;6174818;23;20288;-89
2022/05/26 18:02:08;;;;;;;1.63;0.90;;;;;;;;;;6175024;23;20251;-89
2022/05/26 18:05:16;;;;;;;5.45;0.88;;;;;;;;;;6174403;23;20470;-88
2022/05/26 18:08:24;;;;;;;1.90;1.10;;;;;;;;;;6191540;23;20172;-89
2022/05/26 18:11:29;;;;;;;1.60;0.85;;;;;;;;;;6175882;23;20184;-88
2022/05/26 18:14:37;;;;;;;1.83;0.95;;;;;;;;;;6191722;23;20171;-87
2022/05/26 18:17:46;;;;;;;4.47;1.40;;;;;;;;;;6176199;23;20174;-86
2022/05/26 18:20:51;;;;;;;2.90;1.05;;;;;;;;;;6174014;23;20348;-86
2022/05/26 18:23:57;;;;;;;2.25;1.45;;;;;;;;;;6191753;23;20262;-88
2022/05/26 18:27:03;;;;;;;3.47;1.30;;;;;;;;;;6191443;23;20529;-88
2022/05/26 18:30:09;;;;;;;3.95;1.30;;;;;;;;;;6173646;23;20168;-87
2022/05/26 18:33:22;;;;;;;5.53;1.40;;;;;;;;;;6173608;23;20176;-87
2022/05/26 18:36:27;;;;;;;5.82;1.33;;;;;;;;;;6173078;23;20171;-87
2022/05/26 18:39:34;;;;;;;4.05;1.60;;;;;;;;;;6173127;23;20436;-87
2022/05/26 18:42:40;;;;;;;3.60;1.27;;;;;;;;;;6173852;23;20303;-89
2022/05/26 18:45:47;;;;;;;3.38;1.50;;;;;;;;;;6173376;23;20188;-89
2022/05/26 18:48:57;;;;;;;2.58;1.08;;;;;;;;;;6192583;23;20171;-88
2022/05/26 18:52:03;;;;;;;1.70;0.90;;;;;;;;;;6190684;23;20564;-87
2022/05/26 18:55:12;;;;;;;4.05;1.27;;;;;;;;;;6190424;23;20603;-88
2022/05/26 18:58:18;;;;;;;1.65;0.98;;;;;;;;;;6182139;23;20159;-87
2022/05/26 19:01:24;;;;;;;2.58;1.23;;;;;;;;;;6195598;23;20176;-87
2022/05/26 19:04:31;;;;;;;14.80;1.27;;;;;;;;;;6213595;23;20176;-87
2022/05/26 19:08:02;;;;;;;3.53;1.88;;;;;;;;;;6195424;23;20160;-86
2022/05/26 19:11:09;;;;;;;2.72;1.50;;;;;;;;;;6213066;23;20175;-89
2022/05/26 19:14:18;;;;;;;6.90;2.05;;;;;;;;;;6213284;23;20192;-88
2022/05/26 19:17:25;;;;;;;14.15;5.30;;;;;;;;;;6212494;23;20193;-88
2022/05/26 19:20:49;;;;;;;10.68;5.20;;;;;;;;;;6212369;23;20187;-89
2022/05/26 19:23:55;;;;;;;14.38;3.67;;;;;;;;;;6195919;23;20200;-88
2022/05/26 19:27:03;;;;;;;3.25;1.48;;;;;;;;;;6195669;23;20232;-87
2022/05/26 19:30:10;;;;;;;3.05;1.45;;;;;;;;;;6195497;23;20172;-86
2022/05/26 19:33:17;;;;;;;3.15;1.20;;;;;;;;;;6205468;23;20222;-88
2022/05/26 19:36:25;;;;;;;6.70;1.40;;;;;;;;;;6242612;23;20150;-88
2022/05/26 19:39:30;;;;;;;3.83;1.23;;;;;;;;;;6242626;23;20202;-87
2022/05/26 19:42:36;;;;;;;2.17;1.23;;;;;;;;;;6242788;23;20201;-89